Time;durP1;ratioP1;P1;durP2;ratioP2;P2;SDS_P1;SDS_P2;PMS_P1;PMS_P2;Temp;Humidity;BMP_temperature;BMP_pressure;BME280_temperature;BME280_humidity;BME280_pressure;Samples;Min_cycle;Max_cycle;Signal;HPM_P1;HPM_P2
2022/07/19 00:00:07;;;;;;;27.13;25.63;;;21.30;62.10;;;;;;4969542;28;21007;-72
2022/07/19 00:02:34;;;;;;;27.50;26.00;;;21.40;62.10;;;;;;4968165;28;20489;-72
2022/07/19 00:05:01;;;;;;;28.70;27.00;;;21.30;62.40;;;;;;4966267;28;20557;-70
2022/07/19 00:07:28;;;;;;;28.43;26.70;;;21.30;62.50;;;;;;4969047;28;20462;-70
2022/07/19 00:09:56;;;;;;;27.60;26.10;;;21.30;62.40;;;;;;4968050;28;20505;-71
2022/07/19 00:12:23;;;;;;;27.47;25.83;;;21.20;62.50;;;;;;4968759;28;21390;-70
2022/07/19 00:14:50;;;;;;;28.10;26.50;;;21.20;62.40;;;;;;4966429;28;21022;-70
2022/07/19 00:17:17;;;;;;;27.67;26.03;;;21.10;62.80;;;;;;4961199;28;20871;-72
2022/07/19 00:19:44;;;;;;;28.07;26.47;;;21.10;63.00;;;;;;4970352;28;20533;-72
2022/07/19 00:22:11;;;;;;;27.77;26.10;;;21.10;63.10;;;;;;4966894;28;20465;-72
2022/07/19 00:24:38;;;;;;;27.67;26.07;;;21.10;63.10;;;;;;4966315;28;20553;-72
2022/07/19 00:27:06;;;;;;;27.43;25.83;;;21.10;63.10;;;;;;4971019;28;20473;-73
2022/07/19 00:29:33;;;;;;;27.53;25.73;;;21.10;63.00;;;;;;4970389;28;20920;-76
2022/07/19 00:32:00;;;;;;;27.13;25.50;;;21.10;63.10;;;;;;4967559;28;20577;-72
2022/07/19 00:34:27;;;;;;;27.70;26.00;;;21.00;63.20;;;;;;4966420;28;20974;-72
2022/07/19 00:36:54;;;;;;;26.90;25.30;;;21.00;63.30;;;;;;4969058;28;20549;-72
2022/07/19 00:39:21;;;;;;;27.67;25.97;;;20.90;63.50;;;;;;4970018;28;20580;-73
2022/07/19 00:41:48;;;;;;;28.30;26.70;;;20.70;63.90;;;;;;4969030;28;20583;-72
2022/07/19 00:44:16;;;;;;;28.67;26.80;;;20.60;64.10;;;;;;4964493;28;20835;-72
2022/07/19 00:46:43;;;;;;;29.23;27.10;;;20.60;64.10;;;;;;4966692;28;20509;-72
2022/07/19 00:49:10;;;;;;;28.83;27.23;;;20.50;64.50;;;;;;4971056;28;21099;-73
2022/07/19 00:51:41;;;;;;;26.93;25.30;;;20.50;64.50;;;;;;4972862;28;21226;-73
2022/07/19 00:54:09;;;;;;;27.23;25.67;;;20.50;64.60;;;;;;4964917;28;20475;-72
2022/07/19 00:56:38;;;;;;;26.67;25.17;;;20.50;64.70;;;;;;4968370;28;20470;-72
2022/07/19 00:59:06;;;;;;;26.97;25.27;;;20.50;64.70;;;;;;4969090;28;20481;-74
2022/07/19 01:01:34;;;;;;;26.70;24.83;;;20.50;64.70;;;;;;4967243;28;20488;-74
2022/07/19 01:04:01;;;;;;;27.43;25.83;;;20.60;64.40;;;;;;4965756;28;20901;-72
2022/07/19 01:06:28;;;;;;;27.67;26.07;;;20.50;64.50;;;;;;4967425;28;20537;-75
2022/07/19 01:08:55;;;;;;;27.47;25.90;;;20.40;64.70;;;;;;4967065;28;20489;-73
2022/07/19 01:11:22;;;;;;;28.53;26.83;;;20.30;65.10;;;;;;4968301;28;20471;-72
2022/07/19 01:13:49;;;;;;;27.90;26.17;;;20.30;65.10;;;;;;4967167;28;20555;-71
2022/07/19 01:16:16;;;;;;;28.60;26.80;;;20.30;65.30;;;;;;4959508;28;20473;-71
2022/07/19 01:18:45;;;;;;;27.90;26.10;;;20.40;65.40;;;;;;4967699;28;20513;-71
2022/07/19 01:21:20;;;;;;;28.53;26.73;;;20.30;65.40;;;;;;4966180;28;20576;-71
2022/07/19 01:23:48;;;;;;;26.77;25.10;;;20.30;65.40;;;;;;4964229;28;20556;-72
2022/07/19 01:26:15;;;;;;;28.03;26.33;;;20.30;65.50;;;;;;4964675;28;20550;-71
2022/07/19 01:28:42;;;;;;;27.30;25.70;;;20.30;65.50;;;;;;4966936;28;20486;-72
2022/07/19 01:31:09;;;;;;;27.80;26.20;;;20.30;65.40;;;;;;4964493;28;20810;-71
2022/07/19 01:33:39;;;;;;;27.60;25.90;;;20.20;65.50;;;;;;4967044;28;20561;-72
2022/07/19 01:36:07;;;;;;;27.83;26.13;;;20.20;65.60;;;;;;4966131;28;20473;-71
2022/07/19 01:38:36;;;;;;;27.47;25.97;;;20.20;65.80;;;;;;4965543;28;21006;-71
2022/07/19 01:41:03;;;;;;;27.87;26.17;;;20.20;65.90;;;;;;4967886;28;20553;-71
2022/07/19 01:43:30;;;;;;;27.30;25.70;;;20.30;65.50;;;;;;4965203;28;20495;-72
2022/07/19 01:45:57;;;;;;;29.77;28.00;;;20.20;65.40;;;;;;4967859;28;20559;-72
2022/07/19 01:48:25;;;;;;;29.73;28.00;;;20.20;65.30;;;;;;4922721;28;1190903;-76
2022/07/19 01:50:52;;;;;;;28.20;26.33;;;20.30;65.30;;;;;;4966927;28;20698;-71
2022/07/19 01:53:20;;;;;;;27.50;26.00;;;20.30;65.20;;;;;;4968527;28;20808;-74
2022/07/19 01:55:48;;;;;;;27.63;25.87;;;20.30;65.10;;;;;;4967832;28;20549;-73
2022/07/19 01:58:15;;;;;;;29.33;27.60;;;20.30;65.00;;;;;;4966452;28;20578;-71
2022/07/19 02:00:42;;;;;;;28.17;26.57;;;20.30;64.90;;;;;;4968253;28;20539;-71
2022/07/19 02:03:09;;;;;;;27.60;26.00;;;20.40;64.90;;;;;;4967455;28;20480;-73
2022/07/19 02:05:36;;;;;;;28.10;26.50;;;20.30;65.20;;;;;;4967271;28;20497;-72
2022/07/19 02:08:03;;;;;;;27.93;26.13;;;20.30;65.30;;;;;;4967086;28;20545;-73
2022/07/19 02:10:30;;;;;;;28.90;27.30;;;20.20;65.40;;;;;;4968744;28;20469;-75
2022/07/19 02:12:59;;;;;;;27.90;26.20;;;20.20;65.50;;;;;;4967642;28;20564;-75
2022/07/19 02:15:26;;;;;;;27.63;26.03;;;20.20;65.70;;;;;;4967427;28;21086;-71
2022/07/19 02:17:53;;;;;;;27.80;26.20;;;20.10;65.90;;;;;;4961879;28;20969;-72
2022/07/19 02:20:20;;;;;;;28.93;27.13;;;20.10;65.90;;;;;;4970365;28;20528;-73
2022/07/19 02:22:47;;;;;;;29.73;27.97;;;20.10;66.20;;;;;;4969685;28;20578;-71
2022/07/19 02:25:14;;;;;;;29.03;27.00;;;20.10;66.20;;;;;;4972183;28;20497;-72
2022/07/19 02:27:42;;;;;;;31.40;29.30;;;20.00;66.40;;;;;;4971290;28;20475;-71
2022/07/19 02:30:12;;;;;;;30.20;28.20;;;20.00;66.60;;;;;;4972565;28;20579;-72
2022/07/19 02:32:39;;;;;;;27.90;26.10;;;20.00;66.60;;;;;;4971639;28;20571;-73
2022/07/19 02:35:09;;;;;;;27.63;26.03;;;20.00;66.60;;;;;;4969871;28;20532;-74
2022/07/19 02:37:36;;;;;;;28.80;26.80;;;20.00;66.70;;;;;;4964106;28;20505;-72
2022/07/19 02:40:03;;;;;;;29.67;27.87;;;19.90;67.40;;;;;;4967528;28;20515;-69
2022/07/19 02:42:30;;;;;;;28.60;26.90;;;19.80;67.40;;;;;;4969458;28;20821;-69
2022/07/19 02:44:57;;;;;;;27.50;26.00;;;19.70;67.50;;;;;;4968625;28;20551;-69
2022/07/19 02:47:25;;;;;;;28.90;27.30;;;19.70;67.60;;;;;;4969460;28;20578;-69
2022/07/19 02:49:53;;;;;;;29.70;27.70;;;19.70;67.50;;;;;;4973957;28;20472;-70
2022/07/19 02:52:20;;;;;;;27.30;25.70;;;19.70;67.40;;;;;;4970673;28;20511;-71
2022/07/19 02:54:47;;;;;;;32.40;30.20;;;19.70;67.40;;;;;;4970774;28;20545;-72
2022/07/19 02:57:14;;;;;;;30.13;28.20;;;19.70;67.40;;;;;;4971208;28;21023;-71
2022/07/19 02:59:41;;;;;;;31.97;29.70;;;19.60;67.30;;;;;;4969229;28;20574;-71
2022/07/19 03:02:08;;;;;;;31.90;29.57;;;19.60;67.40;;;;;;4968720;28;20469;-75
2022/07/19 03:04:36;;;;;;;29.63;27.53;;;19.60;67.40;;;;;;4970632;28;20496;-72
2022/07/19 03:07:03;;;;;;;29.20;27.40;;;19.70;67.30;;;;;;4970854;28;20548;-72
2022/07/19 03:09:30;;;;;;;28.93;26.90;;;19.70;67.20;;;;;;4969670;28;20939;-71
2022/07/19 03:11:57;;;;;;;34.17;32.27;;;19.70;67.20;;;;;;4970422;28;20546;-72
2022/07/19 03:14:23;;;;;;;30.80;28.90;;;19.70;67.20;;;;;;4966460;28;20466;-73
2022/07/19 03:16:50;;;;;;;30.10;28.40;;;19.70;67.20;;;;;;4960779;28;20566;-71
2022/07/19 03:19:17;;;;;;;30.10;28.40;;;19.50;67.70;;;;;;4967096;28;20522;-73
2022/07/19 03:21:46;;;;;;;29.93;28.13;;;19.50;68.00;;;;;;4966376;28;20920;-71
2022/07/19 03:24:13;;;;;;;30.13;28.20;;;19.40;68.10;;;;;;4970641;28;20536;-74
2022/07/19 03:26:40;;;;;;;31.87;29.90;;;19.40;68.30;;;;;;4972610;28;20546;-73
2022/07/19 03:29:07;;;;;;;29.57;27.77;;;19.30;68.50;;;;;;4967110;28;21060;-73
2022/07/19 03:31:34;;;;;;;29.03;27.33;;;19.30;68.50;;;;;;4967870;28;20724;-72
2022/07/19 03:34:00;;;;;;;29.63;27.60;;;19.30;68.60;;;;;;4970555;28;20564;-72
2022/07/19 03:36:27;;;;;;;28.50;26.70;;;19.20;68.70;;;;;;4969723;28;20922;-69
2022/07/19 03:38:56;;;;;;;31.47;29.57;;;19.30;68.50;;;;;;4969456;28;20507;-68
2022/07/19 03:41:23;;;;;;;29.67;27.77;;;19.20;68.60;;;;;;4966788;28;20518;-69
2022/07/19 03:43:50;;;;;;;32.07;30.07;;;19.20;68.70;;;;;;4967731;28;20494;-69
2022/07/19 03:46:18;;;;;;;30.33;28.43;;;19.20;68.50;;;;;;4970453;28;21021;-69
2022/07/19 03:48:45;;;;;;;31.17;29.37;;;19.00;69.10;;;;;;4971179;28;20495;-69
2022/07/19 03:51:12;;;;;;;28.90;27.13;;;19.00;69.40;;;;;;4971009;28;20494;-69
2022/07/19 03:53:39;;;;;;;29.63;27.60;;;19.00;69.30;;;;;;4965770;28;20498;-69
2022/07/19 03:56:08;;;;;;;30.80;28.80;;;19.00;69.40;;;;;;4965507;28;20571;-68
2022/07/19 03:58:35;;;;;;;29.23;27.30;;;19.00;69.40;;;;;;4969359;28;20603;-69
2022/07/19 04:01:02;;;;;;;30.20;28.20;;;19.00;69.10;;;;;;4970980;28;20537;-69
2022/07/19 04:03:29;;;;;;;29.17;27.47;;;19.10;69.10;;;;;;4966975;28;20509;-68
2022/07/19 04:05:56;;;;;;;29.43;27.67;;;19.20;68.50;;;;;;4968547;28;20465;-69
2022/07/19 04:08:23;;;;;;;30.17;27.70;;;19.30;68.40;;;;;;4970142;28;20475;-74
2022/07/19 04:10:50;;;;;;;32.27;30.00;;;19.50;67.70;;;;;;4969238;28;20538;-70
2022/07/19 04:13:18;;;;;;;33.10;31.03;;;19.50;67.50;;;;;;4965729;28;20848;-71
2022/07/19 04:15:45;;;;;;;33.30;31.23;;;19.60;67.40;;;;;;4968459;28;20984;-72
2022/07/19 04:18:12;;;;;;;32.47;30.47;;;19.50;67.40;;;;;;4965113;28;20998;-71
2022/07/19 04:20:39;;;;;;;30.63;28.73;;;19.60;67.20;;;;;;4972340;28;20542;-69
2022/07/19 04:23:06;;;;;;;30.10;28.30;;;19.70;67.10;;;;;;4964076;28;21142;-73
2022/07/19 04:25:33;;;;;;;32.03;30.13;;;19.70;66.90;;;;;;4969622;28;20554;-69
2022/07/19 04:28:01;;;;;;;29.60;27.80;;;19.80;67.20;;;;;;4965283;28;20548;-69
2022/07/19 04:30:30;;;;;;;30.20;28.30;;;19.90;66.90;;;;;;4970661;28;20472;-69
2022/07/19 04:32:57;;;;;;;30.60;28.83;;;19.90;66.80;;;;;;4966803;28;20484;-69
2022/07/19 04:35:24;;;;;;;29.80;27.80;;;20.00;66.70;;;;;;4966956;28;20564;-69
2022/07/19 04:37:51;;;;;;;29.30;27.23;;;20.00;66.30;;;;;;4969225;28;20460;-69
2022/07/19 04:40:18;;;;;;;32.80;30.80;;;20.20;66.00;;;;;;4970396;28;20492;-70
2022/07/19 04:42:45;;;;;;;29.53;27.83;;;20.20;65.80;;;;;;4964833;28;21039;-75
2022/07/19 04:45:11;;;;;;;29.67;27.83;;;20.20;65.80;;;;;;4961708;28;21020;-75
2022/07/19 04:47:40;;;;;;;32.90;30.80;;;20.20;65.90;;;;;;4964982;28;20576;-74
2022/07/19 04:50:08;;;;;;;32.23;30.20;;;20.30;65.80;;;;;;4967160;28;20641;-76
2022/07/19 04:52:35;;;;;;;31.60;29.63;;;20.30;65.80;;;;;;4968726;28;20578;-71
2022/07/19 04:55:02;;;;;;;30.40;28.40;;;20.30;65.60;;;;;;4969777;28;20497;-73
2022/07/19 04:57:29;;;;;;;31.67;29.40;;;20.30;65.50;;;;;;4967353;28;20548;-77
2022/07/19 04:59:55;;;;;;;29.17;27.57;;;20.40;65.50;;;;;;4965084;28;20893;-74
2022/07/19 05:02:23;;;;;;;30.63;28.53;;;20.50;65.50;;;;;;4966651;28;20556;-73
2022/07/19 05:04:51;;;;;;;32.30;30.30;;;20.60;65.20;;;;;;4965725;28;20952;-72
2022/07/19 05:07:18;;;;;;;30.20;28.40;;;20.70;65.10;;;;;;4957795;28;20896;-74
2022/07/19 05:09:45;;;;;;;30.43;28.47;;;20.70;65.10;;;;;;4970678;28;20492;-74
2022/07/19 05:12:12;;;;;;;30.30;28.30;;;20.90;64.70;;;;;;4971370;28;20519;-74
2022/07/19 05:14:39;;;;;;;31.97;29.70;;;20.90;64.60;;;;;;4964914;28;20623;-72
2022/07/19 05:17:06;;;;;;;30.60;28.57;;;21.00;64.80;;;;;;4959740;28;20467;-72
2022/07/19 05:19:33;;;;;;;32.07;29.87;;;21.00;64.40;;;;;;4968394;28;20510;-73
2022/07/19 05:22:01;;;;;;;29.50;27.60;;;21.10;64.20;;;;;;4967787;28;20901;-72
2022/07/19 05:24:28;;;;;;;32.97;30.83;;;21.20;64.20;;;;;;4963664;28;20553;-72
2022/07/19 05:26:55;;;;;;;29.93;28.07;;;21.30;63.90;;;;;;4969453;28;20462;-71
2022/07/19 05:29:22;;;;;;;30.00;27.90;;;21.20;64.00;;;;;;4967378;28;20517;-72
2022/07/19 05:31:49;;;;;;;33.23;31.33;;;21.30;64.00;;;;;;4962626;28;20534;-74
2022/07/19 05:34:16;;;;;;;29.60;27.90;;;21.40;63.70;;;;;;4968138;28;20565;-71
2022/07/19 05:36:43;;;;;;;30.37;27.77;;;21.50;63.30;;;;;;4965334;28;20515;-71
2022/07/19 05:39:12;;;;;;;29.53;27.73;;;21.50;63.10;;;;;;4966027;28;20618;-73
2022/07/19 05:41:39;;;;;;;29.73;27.60;;;21.60;62.90;;;;;;4967565;28;20927;-71
2022/07/19 05:44:06;;;;;;;31.50;29.50;;;21.70;62.80;;;;;;4961994;28;20456;-73
2022/07/19 05:46:33;;;;;;;36.33;29.27;;;21.80;62.90;;;;;;4969194;28;20469;-72
2022/07/19 05:49:00;;;;;;;31.20;29.20;;;21.90;62.80;;;;;;4963378;28;20584;-72
2022/07/19 05:51:27;;;;;;;32.23;29.50;;;22.00;62.40;;;;;;4963506;28;21072;-72
2022/07/19 05:53:54;;;;;;;30.17;28.27;;;22.20;62.00;;;;;;4966741;28;20560;-72
2022/07/19 05:56:22;;;;;;;32.27;29.80;;;22.30;61.80;;;;;;4963929;28;21003;-73
2022/07/19 05:58:49;;;;;;;32.27;29.60;;;22.40;61.40;;;;;;4963042;28;20576;-70
2022/07/19 06:01:19;;;;;;;30.57;28.57;;;22.60;61.20;;;;;;4966258;28;20532;-70
2022/07/19 06:03:46;;;;;;;33.37;31.07;;;22.70;61.10;;;;;;4969492;28;20489;-71
2022/07/19 06:06:15;;;;;;;33.10;30.73;;;22.80;60.80;;;;;;4964733;28;20467;-69
2022/07/19 06:08:42;;;;;;;35.20;32.90;;;23.00;60.50;;;;;;4960149;28;20485;-70
2022/07/19 06:11:09;;;;;;;32.90;30.80;;;23.10;60.10;;;;;;4968911;28;20824;-74
2022/07/19 06:13:38;;;;;;;33.37;30.93;;;23.20;59.60;;;;;;4966922;28;20524;-71
2022/07/19 06:16:06;;;;;;;32.43;30.23;;;23.30;59.10;;;;;;4965888;28;20546;-71
2022/07/19 06:18:35;;;;;;;31.77;29.77;;;23.50;58.80;;;;;;4961125;28;20567;-79
2022/07/19 06:21:02;;;;;;;33.63;31.63;;;23.70;58.50;;;;;;4962498;28;20460;-74
2022/07/19 06:23:29;;;;;;;31.63;29.47;;;23.80;58.50;;;;;;4963064;28;20472;-75
2022/07/19 06:25:56;;;;;;;33.83;31.60;;;23.90;57.90;;;;;;4964372;28;20463;-72
2022/07/19 06:28:23;;;;;;;34.13;31.27;;;24.00;57.70;;;;;;4968340;28;20483;-72
2022/07/19 06:30:52;;;;;;;35.97;33.53;;;24.00;57.60;;;;;;4966137;28;20492;-71
2022/07/19 06:33:19;;;;;;;34.13;31.90;;;24.20;57.50;;;;;;4962937;28;20927;-72
2022/07/19 06:35:46;;;;;;;33.37;31.03;;;24.30;56.60;;;;;;4961558;28;20946;-72
2022/07/19 06:38:13;;;;;;;30.57;28.80;;;24.40;56.00;;;;;;4970609;28;20570;-72
2022/07/19 06:40:40;;;;;;;33.50;31.00;;;24.60;55.40;;;;;;4968140;28;20901;-72
2022/07/19 06:43:07;;;;;;;31.27;28.90;;;24.80;54.80;;;;;;4964693;28;20550;-71
2022/07/19 06:45:34;;;;;;;34.93;33.23;;;24.90;54.90;;;;;;4968153;28;20542;-72
2022/07/19 06:48:03;;;;;;;32.10;30.10;;;25.00;54.20;;;;;;4960667;28;20586;-73
2022/07/19 06:50:30;;;;;;;32.30;30.30;;;25.10;53.70;;;;;;4969950;28;20454;-72
2022/07/19 06:52:57;;;;;;;31.40;29.40;;;25.30;52.80;;;;;;4966494;28;20494;-70
2022/07/19 06:55:25;;;;;;;31.57;29.53;;;25.30;51.70;;;;;;4964813;28;20499;-71
2022/07/19 06:57:52;;;;;;;31.20;29.40;;;25.40;51.70;;;;;;4961949;28;20469;-70
2022/07/19 07:00:19;;;;;;;31.57;29.67;;;25.50;51.40;;;;;;4968065;28;20526;-69
2022/07/19 07:02:46;;;;;;;35.57;33.37;;;25.60;51.10;;;;;;4967031;28;20465;-70
2022/07/19 07:05:15;;;;;;;32.07;30.13;;;25.70;50.60;;;;;;4969520;28;20655;-69
2022/07/19 07:07:42;;;;;;;30.93;29.13;;;25.80;50.00;;;;;;4971803;28;21028;-71
2022/07/19 07:10:10;;;;;;;31.10;29.13;;;25.80;49.90;;;;;;4972505;28;20487;-72
2022/07/19 07:12:37;;;;;;;31.33;29.43;;;25.90;49.50;;;;;;4969962;28;20959;-72
2022/07/19 07:15:05;;;;;;;31.90;29.87;;;26.10;49.20;;;;;;4969414;28;20488;-72
2022/07/19 07:17:32;;;;;;;31.90;29.90;;;26.20;49.10;;;;;;4969400;28;20552;-71
2022/07/19 07:19:59;;;;;;;33.77;31.43;;;26.40;49.60;;;;;;4971268;28;20559;-73
2022/07/19 07:22:27;;;;;;;35.77;33.40;;;26.50;49.40;;;;;;4972538;28;20470;-72
2022/07/19 07:24:54;;;;;;;32.20;30.20;;;26.60;48.90;;;;;;4968357;28;20464;-72
2022/07/19 07:27:21;;;;;;;34.27;31.63;;;26.80;48.90;;;;;;4972168;28;20802;-72
2022/07/19 07:29:48;;;;;;;34.47;31.77;;;26.90;48.60;;;;;;4971762;28;20565;-72
2022/07/19 07:32:15;;;;;;;33.10;31.10;;;27.00;48.40;;;;;;4969837;28;20520;-72
2022/07/19 07:34:42;;;;;;;34.13;31.20;;;27.20;48.00;;;;;;4970562;28;20481;-71
2022/07/19 07:37:09;;;;;;;31.03;29.03;;;27.30;47.80;;;;;;4963527;28;20522;-71
2022/07/19 07:39:38;;;;;;;34.33;32.23;;;27.40;47.40;;;;;;4967885;28;20483;-73
2022/07/19 07:42:05;;;;;;;31.53;29.63;;;27.50;47.50;;;;;;4960714;28;20551;-74
2022/07/19 07:44:33;;;;;;;33.73;31.63;;;27.50;48.30;;;;;;4967226;28;20550;-74
2022/07/19 07:47:00;;;;;;;33.57;31.37;;;27.60;46.80;;;;;;4965016;28;20471;-73
2022/07/19 07:49:27;;;;;;;32.93;30.70;;;27.70;46.60;;;;;;4970680;28;20573;-74
2022/07/19 07:51:54;;;;;;;33.57;31.10;;;27.80;46.70;;;;;;4968788;28;20475;-73
2022/07/19 07:54:21;;;;;;;33.50;31.17;;;27.80;46.00;;;;;;4965904;28;20487;-73
2022/07/19 07:56:49;;;;;;;34.80;32.23;;;27.90;46.60;;;;;;4963542;28;20579;-75
2022/07/19 07:59:16;;;;;;;33.70;31.40;;;28.00;46.10;;;;;;4971204;28;20570;-74
2022/07/19 08:01:44;;;;;;;38.57;36.17;;;28.10;45.90;;;;;;4970604;28;20472;-72
2022/07/19 08:04:11;;;;;;;35.83;33.53;;;28.20;45.30;;;;;;4971196;28;20507;-77
2022/07/19 08:06:38;;;;;;;35.00;32.40;;;28.30;44.50;;;;;;4967918;28;20875;-73
2022/07/19 08:09:06;;;;;;;35.27;33.00;;;28.40;44.10;;;;;;4966723;28;20906;-73
2022/07/19 08:11:33;;;;;;;31.30;29.20;;;28.60;43.40;;;;;;4969085;28;21076;-72
2022/07/19 08:14:02;;;;;;;37.80;35.47;;;28.80;42.30;;;;;;4967142;28;20695;-73
2022/07/19 08:16:29;;;;;;;32.30;30.30;;;29.00;42.40;;;;;;4959825;28;20495;-73
2022/07/19 08:18:56;;;;;;;34.50;32.10;;;29.10;42.60;;;;;;4962952;28;21008;-73
2022/07/19 08:21:23;;;;;;;34.80;32.40;;;29.20;41.90;;;;;;4967034;28;20471;-75
2022/07/19 08:23:50;;;;;;;34.13;31.87;;;29.30;41.30;;;;;;4968436;28;20566;-74
2022/07/19 08:26:17;;;;;;;34.57;32.43;;;29.30;41.70;;;;;;4969503;28;20516;-73
2022/07/19 08:28:46;;;;;;;32.07;29.93;;;29.30;42.40;;;;;;4970814;28;21054;-73
2022/07/19 08:31:14;;;;;;;30.80;28.90;;;29.40;42.00;;;;;;4967410;28;20490;-75
2022/07/19 08:33:42;;;;;;;31.20;29.20;;;29.50;40.20;;;;;;4967409;28;20491;-74
2022/07/19 08:36:10;;;;;;;36.80;34.80;;;29.60;41.50;;;;;;4970904;28;20541;-73
2022/07/19 08:38:38;;;;;;;34.53;32.53;;;29.60;41.20;;;;;;4969918;28;20471;-73
2022/07/19 08:41:06;;;;;;;35.40;33.23;;;29.60;40.70;;;;;;4971096;28;20542;-73
2022/07/19 08:43:33;;;;;;;32.23;30.23;;;29.70;40.60;;;;;;4965690;28;20557;-73
2022/07/19 08:46:01;;;;;;;33.73;31.53;;;29.70;41.00;;;;;;4968483;28;21004;-74
2022/07/19 08:48:32;;;;;;;32.43;30.53;;;29.70;41.20;;;;;;4965565;28;20482;-71
2022/07/19 08:51:00;;;;;;;32.50;30.60;;;29.80;39.80;;;;;;4969849;28;20459;-71
2022/07/19 08:53:30;;;;;;;34.20;32.20;;;30.00;39.60;;;;;;4968300;28;20558;-72
2022/07/19 08:55:57;;;;;;;31.53;29.60;;;30.10;39.80;;;;;;4971723;28;20467;-72
2022/07/19 08:58:23;;;;;;;32.80;30.90;;;30.10;39.60;;;;;;4968978;28;21179;-72
2022/07/19 09:00:51;;;;;;;32.90;30.90;;;30.20;39.60;;;;;;4970588;28;20941;-71
2022/07/19 09:03:18;;;;;;;33.07;31.00;;;30.20;40.10;;;;;;4968678;28;20497;-72
2022/07/19 09:05:46;;;;;;;36.33;34.23;;;30.20;40.10;;;;;;4969553;28;20458;-71
2022/07/19 09:08:14;;;;;;;35.03;32.30;;;30.20;39.70;;;;;;4967875;28;20489;-72
2022/07/19 09:10:43;;;;;;;36.73;34.20;;;30.30;39.70;;;;;;4971457;28;20459;-72
2022/07/19 09:13:12;;;;;;;33.10;31.10;;;30.40;39.20;;;;;;4965840;28;20480;-75
2022/07/19 09:15:45;;;;;;;32.33;30.23;;;30.50;39.30;;;;;;4966201;28;20471;-75
2022/07/19 09:18:14;;;;;;;34.77;32.67;;;30.50;38.70;;;;;;4964422;28;20518;-74
2022/07/19 09:20:42;;;;;;;34.00;31.70;;;30.50;39.90;;;;;;4962134;28;20466;-75
2022/07/19 09:23:10;;;;;;;37.10;35.10;;;30.50;39.60;;;;;;4961170;28;20471;-74
2022/07/19 09:25:39;;;;;;;34.33;32.33;;;30.50;39.70;;;;;;4973378;28;20486;-76
2022/07/19 09:28:07;;;;;;;34.10;31.83;;;30.60;39.20;;;;;;4972107;28;20541;-79
2022/07/19 09:30:37;;;;;;;32.47;30.43;;;30.60;39.00;;;;;;4973567;28;20891;-76
2022/07/19 09:33:23;;;;;;;35.67;33.67;;;30.60;38.80;;;;;;4967199;28;20459;-76
2022/07/19 09:35:52;;;;;;;35.07;32.60;;;30.70;39.10;;;;;;4963764;28;20756;-75
2022/07/19 09:38:26;;;;;;;33.33;31.30;;;30.80;37.20;;;;;;4965379;28;20638;-79
2022/07/19 09:40:54;;;;;;;32.57;30.20;;;31.00;36.60;;;;;;4962365;28;20499;-76
2022/07/19 09:43:25;;;;;;;34.33;32.07;;;31.10;36.30;;;;;;4966026;28;20450;-76
2022/07/19 09:45:53;;;;;;;34.17;32.07;;;31.00;37.40;;;;;;4964047;28;20518;-76
2022/07/19 09:48:20;;;;;;;31.03;29.33;;;31.10;36.60;;;;;;4963327;28;21003;-76
2022/07/19 09:50:49;;;;;;;32.80;30.80;;;31.00;36.30;;;;;;4964948;28;20573;-76
2022/07/19 09:53:17;;;;;;;33.63;31.47;;;31.10;36.20;;;;;;4961742;28;20497;-77
2022/07/19 09:55:47;;;;;;;31.73;29.67;;;31.10;36.30;;;;;;4968296;28;20777;-76
2022/07/19 09:58:16;;;;;;;32.57;30.47;;;31.20;35.60;;;;;;4964052;28;20536;-76
2022/07/19 10:00:44;;;;;;;32.77;30.77;;;31.30;35.30;;;;;;4964039;28;20474;-76
2022/07/19 10:03:12;;;;;;;33.40;30.83;;;31.40;35.00;;;;;;4956054;28;20569;-76
2022/07/19 10:05:40;;;;;;;33.93;31.73;;;31.40;34.50;;;;;;4973971;28;20540;-76
2022/07/19 10:08:07;;;;;;;32.80;30.70;;;31.50;34.30;;;;;;4966158;28;20467;-78
2022/07/19 10:10:34;;;;;;;31.50;29.60;;;31.50;34.80;;;;;;4957221;28;21094;-76
2022/07/19 10:13:04;;;;;;;32.60;30.50;;;31.60;34.90;;;;;;4963418;28;21029;-76
2022/07/19 10:15:36;;;;;;;36.10;33.90;;;31.70;34.40;;;;;;4961015;28;20479;-76
2022/07/19 10:18:13;;;;;;;33.37;31.17;;;31.70;34.10;;;;;;4962445;28;20546;-76
2022/07/19 10:20:46;;;;;;;35.40;33.00;;;31.70;34.80;;;;;;4966183;28;20827;-77
2022/07/19 10:23:14;;;;;;;34.73;32.73;;;31.60;34.50;;;;;;4956314;28;20462;-75
2022/07/19 10:25:44;;;;;;;33.43;31.33;;;31.70;33.70;;;;;;4964621;28;20502;-75
2022/07/19 10:28:36;;;;;;;32.73;30.73;;;31.80;33.50;;;;;;4967261;28;20492;-75
2022/07/19 10:31:24;;;;;;;31.47;29.60;;;31.70;33.80;;;;;;4968237;28;20466;-75
2022/07/19 10:34:00;;;;;;;33.10;30.70;;;31.80;34.50;;;;;;4965558;28;20498;-75
2022/07/19 10:36:35;;;;;;;30.73;28.93;;;31.80;33.90;;;;;;4959190;28;20494;-75
2022/07/19 10:39:23;;;;;;;31.60;29.63;;;31.80;34.10;;;;;;4969044;28;20474;-75
2022/07/19 10:42:13;;;;;;;35.00;32.90;;;32.00;34.20;;;;;;4972063;28;20467;-76
2022/07/19 10:45:23;;;;;;;31.63;29.83;;;32.10;34.20;;;;;;4969835;28;20948;-72
2022/07/19 10:48:11;;;;;;;33.37;31.37;;;32.10;34.30;;;;;;4961756;28;20495;-71
2022/07/19 10:50:47;;;;;;;32.70;30.30;;;32.20;33.90;;;;;;4960379;28;20884;-71
2022/07/19 10:53:58;;;;;;;35.43;33.23;;;32.20;34.40;;;;;;4970349;28;20465;-72
2022/07/19 10:56:34;;;;;;;35.90;33.60;;;32.20;34.20;;;;;;4971227;28;20955;-72
2022/07/19 10:59:03;;;;;;;37.90;35.80;;;32.20;34.00;;;;;;4961596;28;20474;-72
2022/07/19 11:01:33;;;;;;;36.63;34.23;;;32.20;34.20;;;;;;4968407;28;20455;-74
2022/07/19 11:04:29;;;;;;;35.17;33.20;;;32.30;34.10;;;;;;4971619;28;20541;-73
2022/07/19 11:07:19;;;;;;;33.07;31.07;;;32.60;34.30;;;;;;4968220;28;20474;-77
2022/07/19 11:09:49;;;;;;;38.37;36.30;;;32.30;33.50;;;;;;4971625;28;20562;-74
2022/07/19 11:12:25;;;;;;;33.37;31.27;;;32.30;33.80;;;;;;4965536;28;20458;-74
2022/07/19 11:14:52;;;;;;;33.10;31.10;;;32.30;34.10;;;;;;4968502;28;20490;-74
2022/07/19 11:17:19;;;;;;;35.77;33.00;;;32.40;33.80;;;;;;4958671;28;20554;-75
2022/07/19 11:20:00;;;;;;;36.87;34.57;;;32.30;33.40;;;;;;4970008;28;20511;-73
2022/07/19 11:22:27;;;;;;;34.60;32.50;;;32.40;33.60;;;;;;4966939;28;20945;-74
2022/07/19 11:24:55;;;;;;;35.77;33.37;;;32.50;34.00;;;;;;4969975;28;21116;-74
2022/07/19 11:27:23;;;;;;;36.13;33.63;;;32.60;33.70;;;;;;4969535;28;20465;-74
2022/07/19 11:29:54;;;;;;;35.57;33.17;;;32.60;32.70;;;;;;4963126;28;20491;-73
2022/07/19 11:32:21;;;;;;;33.70;31.50;;;32.50;33.70;;;;;;4954453;28;20459;-73
2022/07/19 11:34:54;;;;;;;34.80;32.70;;;32.70;32.60;;;;;;4968721;28;20565;-73
2022/07/19 11:37:27;;;;;;;37.67;35.07;;;32.70;33.00;;;;;;4960352;28;20593;-74
2022/07/19 11:39:54;;;;;;;34.27;32.13;;;32.80;32.80;;;;;;4968394;28;20581;-71
2022/07/19 11:42:33;;;;;;;36.20;33.90;;;32.90;32.60;;;;;;4969239;28;20471;-71
2022/07/19 11:45:07;;;;;;;33.73;31.73;;;33.00;32.70;;;;;;4970165;28;20494;-71
2022/07/19 11:47:35;;;;;;;37.43;35.13;;;33.00;32.50;;;;;;4968805;28;20485;-71
2022/07/19 11:50:06;;;;;;;33.30;31.20;;;32.80;32.10;;;;;;4970748;28;20486;-71
2022/07/19 11:52:44;;;;;;;33.63;31.53;;;32.70;32.20;;;;;;4965031;28;20570;-71
2022/07/19 11:55:11;;;;;;;32.30;30.30;;;32.80;33.00;;;;;;4966312;28;20582;-72
2022/07/19 11:57:38;;;;;;;32.87;30.90;;;33.00;32.40;;;;;;4970833;28;20485;-70
2022/07/19 12:00:07;;;;;;;33.87;31.57;;;33.10;32.30;;;;;;4964431;28;20686;-72
2022/07/19 12:02:53;;;;;;;37.53;34.87;;;33.10;32.50;;;;;;4969046;28;20457;-72
2022/07/19 12:05:20;;;;;;;34.90;32.67;;;33.20;32.30;;;;;;4967690;28;20566;-71
2022/07/19 12:07:50;;;;;;;34.77;32.63;;;33.10;32.50;;;;;;4972242;28;20899;-71
2022/07/19 12:10:37;;;;;;;37.07;34.63;;;33.20;32.30;;;;;;4970336;28;20493;-71
2022/07/19 12:13:05;;;;;;;36.73;34.23;;;33.30;32.10;;;;;;4966304;28;20542;-71
2022/07/19 12:15:51;;;;;;;34.40;32.03;;;33.30;32.30;;;;;;4967736;28;20594;-72
2022/07/19 12:18:19;;;;;;;35.23;32.93;;;33.40;32.20;;;;;;4966806;28;20478;-70
2022/07/19 12:21:06;;;;;;;33.37;31.03;;;33.60;32.20;;;;;;4970696;28;20546;-70
2022/07/19 12:23:35;;;;;;;35.50;33.30;;;33.70;32.00;;;;;;4971275;28;21003;-70
2022/07/19 12:26:05;;;;;;;32.30;30.30;;;33.70;32.40;;;;;;4965488;28;20541;-72
2022/07/19 12:28:32;;;;;;;34.87;32.80;;;33.80;32.70;;;;;;4971705;28;20853;-69
2022/07/19 12:31:03;;;;;;;37.90;35.67;;;33.90;32.00;;;;;;4969211;28;20569;-70
2022/07/19 12:33:30;;;;;;;39.87;37.37;;;34.00;32.10;;;;;;4967981;28;20468;-71